Time;durP1;ratioP1;P1;durP2;ratioP2;P2;SDS_P1;SDS_P2;PMS_P1;PMS_P2;Temp;Humidity;BMP_temperature;BMP_pressure;BME280_temperature;BME280_humidity;BME280_pressure;Samples;Min_cycle;Max_cycle;Signal;HPM_P1;HPM_P2
2023/12/16 00:00:02;;;;;;;38.35;21.75;;;;;;;4.99;84.23;102733.53;2514783;28;20078;-81
2023/12/16 00:01:16;;;;;;;34.35;22.42;;;;;;;4.99;84.26;102736.09;2515795;28;20053;-82
2023/12/16 00:02:30;;;;;;;30.00;21.35;;;;;;;5.00;84.36;102749.09;2515730;28;20054;-82
2023/12/16 00:03:44;;;;;;;37.00;22.63;;;;;;;5.02;84.34;102738.84;2515773;28;20145;-83
2023/12/16 00:04:58;;;;;;;39.50;22.98;;;;;;;5.04;84.56;102737.22;2515871;28;20054;-83
2023/12/16 00:06:11;;;;;;;37.65;22.25;;;;;;;5.05;84.56;102732.91;2515462;28;20057;-82
2023/12/16 00:07:26;;;;;;;40.55;21.50;;;;;;;5.05;84.55;102744.16;2514980;28;20054;-82
2023/12/16 00:08:39;;;;;;;42.70;20.33;;;;;;;5.07;84.44;102752.88;2516255;28;20050;-83
2023/12/16 00:09:54;;;;;;;38.15;21.85;;;;;;;5.10;84.57;102750.44;2516624;28;20046;-84
2023/12/16 00:11:09;;;;;;;35.55;20.48;;;;;;;5.12;84.59;102745.34;2515933;28;20065;-82
2023/12/16 00:12:23;;;;;;;38.22;21.92;;;;;;;5.13;84.68;102747.09;2516204;28;20050;-84
2023/12/16 00:13:36;;;;;;;37.10;20.75;;;;;;;5.14;84.65;102748.91;2515842;28;20057;-83
2023/12/16 00:14:51;;;;;;;34.58;20.80;;;;;;;5.14;84.71;102752.38;2515813;28;20530;-82
2023/12/16 00:16:05;;;;;;;42.75;23.67;;;;;;;5.16;84.66;102757.59;2514535;28;20046;-81
2023/12/16 00:17:20;;;;;;;33.40;22.95;;;;;;;5.17;84.69;102749.91;2516341;28;20034;-82
2023/12/16 00:18:34;;;;;;;33.75;20.60;;;;;;;5.17;84.61;102756.81;2512316;28;20046;-83
2023/12/16 00:19:49;;;;;;;39.25;21.65;;;;;;;5.15;84.61;102756.72;2511901;28;20123;-82
2023/12/16 00:21:03;;;;;;;35.97;21.58;;;;;;;5.16;84.92;102757.59;2512386;28;20054;-83
2023/12/16 00:22:17;;;;;;;32.67;19.48;;;;;;;5.15;84.68;102754.13;2512439;28;20053;-82
2023/12/16 00:23:31;;;;;;;38.80;21.60;;;;;;;5.16;84.82;102747.25;2511879;28;20062;-82
2023/12/16 00:24:45;;;;;;;34.60;20.70;;;;;;;5.17;84.77;102749.03;2512688;28;20076;-82
2023/12/16 00:25:58;;;;;;;34.05;20.80;;;;;;;5.17;84.80;102744.75;2512135;28;20054;-82
2023/12/16 00:27:14;;;;;;;31.23;19.15;;;;;;;5.18;84.69;102736.16;2511825;28;20046;-82
2023/12/16 00:28:28;;;;;;;38.65;19.85;;;;;;;5.19;84.77;102737.06;2512465;28;20050;-82
2023/12/16 00:29:42;;;;;;;35.75;21.85;;;;;;;5.19;84.56;102734.47;2512802;28;20070;-83
2023/12/16 00:30:56;;;;;;;33.55;22.25;;;;;;;5.19;84.50;102722.41;2512457;28;20054;-82
2023/12/16 00:32:11;;;;;;;35.97;21.98;;;;;;;5.19;84.63;102721.53;2511750;28;20077;-82
2023/12/16 00:33:24;;;;;;;40.83;22.35;;;;;;;5.19;84.55;102722.41;2513163;28;20050;-82
2023/12/16 00:34:39;;;;;;;36.08;20.77;;;;;;;5.19;84.47;102726.69;2512204;28;20054;-83
2023/12/16 00:35:52;;;;;;;43.22;22.42;;;;;;;5.19;84.56;102727.59;2512811;28;20050;-82
2023/12/16 00:37:08;;;;;;;37.33;21.35;;;;;;;5.18;84.96;102728.38;2512175;28;20051;-82
2023/12/16 00:38:21;;;;;;;35.00;20.20;;;;;;;5.18;84.61;102728.38;2512743;28;20467;-82
2023/12/16 00:39:35;;;;;;;39.47;20.67;;;;;;;5.18;84.47;102732.69;2511765;28;20098;-82
2023/12/16 00:40:49;;;;;;;28.45;18.20;;;;;;;5.18;84.47;102725.78;2512919;28;20054;-82
2023/12/16 00:42:04;;;;;;;32.45;19.77;;;;;;;5.19;84.65;102727.59;2512490;28;20396;-82
2023/12/16 00:43:19;;;;;;;35.85;20.90;;;;;;;5.18;84.68;102728.38;2512455;28;20058;-82
2023/12/16 00:44:34;;;;;;;35.30;20.42;;;;;;;5.18;84.59;102727.50;2513401;28;20415;-83
2023/12/16 00:45:48;;;;;;;31.92;19.38;;;;;;;5.20;84.68;102729.34;2514953;28;20054;-82
2023/12/16 00:47:02;;;;;;;35.75;20.33;;;;;;;5.20;84.61;102737.09;2513732;28;20050;-82
2023/12/16 00:48:16;;;;;;;40.35;22.38;;;;;;;5.21;84.64;102736.31;2514569;28;20042;-82
2023/12/16 00:49:30;;;;;;;39.42;22.80;;;;;;;5.22;84.65;102743.25;2514244;28;20054;-82
2023/12/16 00:50:43;;;;;;;32.75;19.70;;;;;;;5.24;84.62;102739.03;2515005;28;20054;-82
2023/12/16 00:51:58;;;;;;;33.15;20.40;;;;;;;5.24;84.64;102741.63;2513603;28;20057;-83
2023/12/16 00:53:12;;;;;;;34.08;21.05;;;;;;;5.25;84.93;102743.38;2515018;28;20046;-82
2023/12/16 00:54:26;;;;;;;31.60;22.17;;;;;;;5.27;84.57;102739.97;2514266;28;20054;-82
2023/12/16 00:55:40;;;;;;;38.53;21.30;;;;;;;5.27;84.74;102738.28;2513995;28;20049;-81
2023/12/16 00:56:55;;;;;;;37.25;21.17;;;;;;;5.29;84.63;102741.81;2514986;28;20113;-83
2023/12/16 00:58:08;;;;;;;37.72;21.25;;;;;;;5.30;84.56;102737.56;2514428;28;20050;-81
2023/12/16 00:59:26;;;;;;;31.52;19.58;;;;;;;5.31;84.75;102741.91;2514687;28;20061;-81
2023/12/16 01:00:41;;;;;;;33.03;18.90;;;;;;;5.32;84.21;102738.47;2514141;28;20150;-81
2023/12/16 01:01:55;;;;;;;32.17;20.60;;;;;;;5.31;84.47;102747.97;2515148;28;20499;-81
2023/12/16 01:03:09;;;;;;;35.95;19.45;;;;;;;5.31;84.60;102747.97;2514324;28;20182;-81
2023/12/16 01:04:23;;;;;;;32.45;20.23;;;;;;;5.30;84.51;102751.38;2515942;28;20539;-83
2023/12/16 01:05:37;;;;;;;30.70;17.45;;;;;;;5.29;84.53;102751.28;2514474;28;20047;-81
2023/12/16 01:06:52;;;;;;;33.08;20.52;;;;;;;5.30;84.56;102755.69;2515656;28;20065;-82
2023/12/16 01:08:05;;;;;;;34.25;20.35;;;;;;;5.30;84.38;102753.09;2514540;28;20035;-82
2023/12/16 01:09:19;;;;;;;32.05;18.90;;;;;;;5.31;84.42;102752.25;2515590;28;20399;-80
2023/12/16 01:10:33;;;;;;;31.83;19.42;;;;;;;5.31;84.55;102762.63;2536407;23;20499;-77
2023/12/16 01:11:47;;;;;;;29.02;19.73;;;;;;;5.32;84.48;102756.59;2513166;28;20046;-77
2023/12/16 01:13:01;;;;;;;33.05;19.38;;;;;;;5.32;84.42;102754.03;2513857;28;20058;-77
2023/12/16 01:14:15;;;;;;;33.38;20.40;;;;;;;5.32;84.39;102761.78;2513972;28;20050;-77
2023/12/16 01:15:30;;;;;;;30.73;19.73;;;;;;;5.32;84.55;102759.19;2513539;28;20504;-77
2023/12/16 01:16:44;;;;;;;33.88;18.13;;;;;;;5.33;84.42;102763.59;2513772;28;20495;-77
2023/12/16 01:17:58;;;;;;;32.58;18.73;;;;;;;5.34;84.40;102760.16;2513942;28;20050;-77
2023/12/16 01:19:12;;;;;;;34.58;19.70;;;;;;;5.34;84.48;102760.16;2513454;28;20513;-77
2023/12/16 01:20:26;;;;;;;30.45;19.60;;;;;;;5.32;84.58;102765.28;2513927;28;20054;-77
2023/12/16 01:21:41;;;;;;;32.85;20.52;;;;;;;5.33;84.49;102761.88;2524608;28;20051;-75
2023/12/16 01:22:55;;;;;;;28.88;18.92;;;;;;;5.33;84.25;102764.47;2517797;28;20100;-77
2023/12/16 01:24:09;;;;;;;32.03;17.80;;;;;;;5.32;84.52;102764.38;2510849;28;20510;-77
2023/12/16 01:25:23;;;;;;;29.80;17.95;;;;;;;5.32;84.37;102759.19;2503994;28;20051;-77
2023/12/16 01:26:37;;;;;;;28.63;17.73;;;;;;;5.31;84.40;102760.03;2510134;28;20054;-77
2023/12/16 01:27:50;;;;;;;30.40;17.58;;;;;;;5.29;84.41;102761.66;2510122;28;20039;-77
2023/12/16 01:29:05;;;;;;;30.73;17.92;;;;;;;5.28;84.39;102754.72;2496108;28;20048;-77
2023/12/16 01:30:18;;;;;;;28.90;17.85;;;;;;;5.28;84.53;102760.78;2508313;28;20100;-77
2023/12/16 01:31:35;;;;;;;29.23;16.77;;;;;;;5.25;84.31;102756.34;2513947;28;20060;-77
2023/12/16 01:32:48;;;;;;;28.38;16.70;;;;;;;5.24;84.22;102770.09;2506227;28;20058;-77
2023/12/16 01:34:03;;;;;;;30.58;16.88;;;;;;;5.23;84.22;102765.72;2499328;28;20420;-77
2023/12/16 01:35:16;;;;;;;30.05;20.40;;;;;;;5.23;84.04;102770.03;2502229;28;20050;-77
2023/12/16 01:36:31;;;;;;;30.02;18.80;;;;;;;5.23;84.36;102767.44;2494297;28;20059;-76
2023/12/16 01:37:44;;;;;;;29.80;18.50;;;;;;;5.22;84.26;102770.84;2501033;28;20058;-77
2023/12/16 01:38:58;;;;;;;23.33;16.80;;;;;;;5.21;nan;102767.38;2504472;28;20403;-77
2023/12/16 01:40:12;;;;;;;34.20;18.88;;;;;;;5.19;84.17;102761.25;2513152;28;20053;-77
2023/12/16 01:41:27;;;;;;;31.10;18.90;;;;;;;5.18;84.31;102767.22;2514593;28;20423;-77
2023/12/16 01:42:40;;;;;;;32.33;17.27;;;;;;;5.19;84.22;102762.94;2513666;28;20054;-77
2023/12/16 01:43:54;;;;;;;28.77;19.63;;;;;;;5.16;84.14;102763.69;2513070;28;20042;-77
2023/12/16 01:45:08;;;;;;;31.20;19.38;;;;;;;5.16;84.18;102770.53;2514186;28;20423;-78
2023/12/16 01:46:23;;;;;;;36.25;21.25;;;;;;;5.16;84.19;102763.69;2516133;28;20050;-78
2023/12/16 01:47:38;;;;;;;27.30;17.00;;;;;;;5.17;84.25;102765.44;2515494;28;20407;-77
2023/12/16 01:48:53;;;;;;;29.80;18.13;;;;;;;5.17;84.16;102770.63;2508535;28;20105;-77
2023/12/16 01:50:07;;;;;;;27.95;17.52;;;;;;;5.19;84.25;102774.19;2498543;28;20050;-78
2023/12/16 01:51:21;;;;;;;30.10;17.38;;;;;;;5.17;84.54;102769.75;2509953;28;20050;-77
2023/12/16 01:52:35;;;;;;;24.75;15.77;;;;;;;5.17;84.24;102767.16;2515928;28;20073;-78
2023/12/16 01:53:50;;;;;;;26.27;17.98;;;;;;;5.17;84.32;102773.22;2508578;28;20050;-77
2023/12/16 01:55:04;;;;;;;24.02;15.40;;;;;;;5.17;84.43;102765.44;2515749;28;20061;-78
2023/12/16 01:56:19;;;;;;;27.88;16.83;;;;;;;5.17;84.24;102764.56;2514696;28;20053;-77
2023/12/16 01:57:32;;;;;;;28.23;17.48;;;;;;;5.15;84.29;102759.31;2516210;28;20046;-78
2023/12/16 01:58:50;;;;;;;28.38;17.85;;;;;;;5.13;84.10;102753.16;2516039;28;20060;-77
2023/12/16 02:00:04;;;;;;;30.77;17.65;;;;;;;5.10;84.25;102753.03;2514650;28;20046;-78
2023/12/16 02:01:19;;;;;;;27.88;17.83;;;;;;;5.08;84.23;102756.34;2515910;28;20042;-78
2023/12/16 02:02:32;;;;;;;32.72;19.70;;;;;;;5.05;84.07;102758.78;2510606;28;20062;-77
2023/12/16 02:03:48;;;;;;;35.55;19.38;;;;;;;5.02;84.13;102764.72;2505374;28;20046;-78
2023/12/16 02:05:03;;;;;;;33.22;18.33;;;;;;;5.01;84.19;102757.78;2506361;28;20104;-78
2023/12/16 02:06:17;;;;;;;31.60;21.15;;;;;;;4.99;83.75;102761.97;2506003;28;20077;-77
2023/12/16 02:07:31;;;;;;;31.98;17.55;;;;;;;4.98;84.33;102761.09;2505956;28;20499;-77
2023/12/16 02:08:45;;;;;;;28.98;17.63;;;;;;;4.97;84.10;102767.06;2506014;28;20062;-77
2023/12/16 02:10:01;;;;;;;28.10;18.30;;;;;;;4.97;84.13;102773.97;2505660;28;20050;-78
2023/12/16 02:11:15;;;;;;;27.50;17.05;;;;;;;4.95;84.09;102775.56;2507803;28;20108;-77
2023/12/16 02:12:31;;;;;;;29.23;17.95;;;;;;;4.95;83.93;102775.56;2510386;28;20062;-78
2023/12/16 02:15:55;;;;;;;28.35;18.48;;;;;;;4.95;84.09;102788.50;2495596;28;20119;-77
2023/12/16 02:17:09;;;;;;;31.05;18.13;;;;;;;4.94;nan;102785.03;2493557;28;20054;-77
2023/12/16 02:18:23;;;;;;;29.17;17.90;;;;;;;4.95;84.09;102785.94;2493580;29;20051;-77
2023/12/16 02:19:38;;;;;;;35.35;20.27;;;;;;;4.95;84.17;102786.81;2497771;28;20070;-78
2023/12/16 02:20:52;;;;;;;27.42;17.85;;;;;;;4.94;84.17;102773.81;2505116;28;20444;-78
2023/12/16 02:22:06;;;;;;;27.50;18.60;;;;;;;4.95;84.23;102773.00;2505267;28;20047;-78
2023/12/16 02:23:22;;;;;;;28.20;17.23;;;;;;;4.95;84.12;102778.16;2505150;28;20411;-77
2023/12/16 02:24:37;;;;;;;31.00;18.00;;;;;;;4.95;84.26;102783.34;2506067;28;20065;-78
2023/12/16 02:25:52;;;;;;;35.58;21.13;;;;;;;4.92;84.19;102785.78;2513290;28;20134;-76
2023/12/16 02:27:05;;;;;;;31.38;19.10;;;;;;;4.92;84.19;102789.25;2505556;28;20051;-78
2023/12/16 02:28:20;;;;;;;32.35;19.63;;;;;;;4.93;84.41;102784.97;2504130;28;20087;-77
2023/12/16 02:29:33;;;;;;;30.33;19.08;;;;;;;4.93;84.29;102777.19;2504565;28;20050;-76
2023/12/16 02:30:47;;;;;;;31.77;18.77;;;;;;;4.94;84.30;102784.16;2503122;28;20050;-77
2023/12/16 02:32:01;;;;;;;34.45;20.67;;;;;;;4.93;84.35;102779.78;2504306;28;20499;-77
2023/12/16 02:33:17;;;;;;;28.88;17.88;;;;;;;4.93;84.46;102783.28;2505136;28;20065;-78
2023/12/16 02:34:30;;;;;;;33.78;19.13;;;;;;;4.94;84.38;102781.56;2504857;28;20061;-77
2023/12/16 02:35:45;;;;;;;32.58;19.80;;;;;;;4.94;84.29;102779.00;2503118;28;20479;-78
2023/12/16 02:37:02;;;;;;;31.10;19.65;;;;;;;4.93;84.20;102783.28;2503954;28;20063;-78
2023/12/16 02:38:16;;;;;;;34.97;19.67;;;;;;;4.95;84.34;102784.22;2504736;28;20050;-77
2023/12/16 02:39:31;;;;;;;39.15;19.80;;;;;;;4.96;84.26;102782.53;2503945;28;20385;-77
2023/12/16 02:40:47;;;;;;;36.65;19.98;;;;;;;4.97;84.43;102792.94;2511100;28;20057;-78
2023/12/16 02:42:01;;;;;;;37.42;21.73;;;;;;;4.99;84.31;102795.63;2505758;28;20053;-77
2023/12/16 02:43:15;;;;;;;34.97;22.52;;;;;;;5.00;84.59;102799.97;2510355;28;20059;-77
2023/12/16 02:44:29;;;;;;;31.42;19.80;;;;;;;5.02;84.34;102795.78;2505043;28;20046;-77
2023/12/16 02:45:43;;;;;;;37.72;22.80;;;;;;;5.02;84.50;102795.78;2510750;28;20054;-77
2023/12/16 02:46:56;;;;;;;44.90;22.80;;;;;;;5.03;84.53;102792.34;2506205;28;20054;-77
2023/12/16 02:48:11;;;;;;;34.05;21.05;;;;;;;5.06;84.45;102801.97;2504257;28;20451;-77
2023/12/16 02:49:26;;;;;;;34.15;21.73;;;;;;;5.09;84.71;102796.97;2508438;28;20050;-77
2023/12/16 02:50:41;;;;;;;36.88;23.95;;;;;;;5.09;84.67;102797.84;2507735;28;20141;-77
2023/12/16 02:51:54;;;;;;;39.75;22.20;;;;;;;5.12;84.57;102808.34;2510334;28;20047;-77
2023/12/16 02:53:08;;;;;;;37.45;22.25;;;;;;;5.14;84.66;102806.72;2505459;28;20050;-77
2023/12/16 02:54:22;;;;;;;39.47;25.98;;;;;;;5.16;84.83;102811.94;2510354;28;20511;-77
2023/12/16 02:55:38;;;;;;;37.60;23.95;;;;;;;5.19;84.70;102818.19;2509115;28;20061;-77
2023/12/16 02:56:51;;;;;;;41.45;24.60;;;;;;;5.21;84.66;102803.63;2506304;28;20066;-76
2023/12/16 02:58:05;;;;;;;42.92;25.00;;;;;;;5.24;84.77;102805.47;2511262;28;20160;-77
2023/12/16 02:59:19;;;;;;;38.03;21.65;;;;;;;5.24;84.93;102803.75;2503310;28;20047;-77
2023/12/16 03:00:33;;;;;;;35.17;21.52;;;;;;;5.25;84.81;102805.53;2502961;28;20054;-77
2023/12/16 03:01:47;;;;;;;37.75;20.00;;;;;;;5.28;84.76;102803.91;2502978;28;20051;-77
2023/12/16 03:03:01;;;;;;;34.95;19.83;;;;;;;5.28;84.84;102806.50;2503450;28;20047;-77
2023/12/16 03:04:14;;;;;;;34.75;21.95;;;;;;;5.28;84.75;102806.50;2503579;28;20427;-77
2023/12/16 03:05:29;;;;;;;39.92;21.88;;;;;;;5.28;84.76;102814.25;2503442;28;20051;-76
2023/12/16 03:06:42;;;;;;;32.33;18.73;;;;;;;5.28;84.79;102806.50;2503664;28;20059;-78
2023/12/16 03:07:57;;;;;;;39.17;21.80;;;;;;;5.28;84.80;102799.59;2501959;28;20054;-77
2023/12/16 03:09:10;;;;;;;33.90;20.75;;;;;;;5.27;84.73;102808.19;2495483;28;20047;-77
2023/12/16 03:10:25;;;;;;;38.38;22.75;;;;;;;5.28;84.43;102809.97;2503021;28;20054;-76
2023/12/16 03:11:39;;;;;;;35.17;20.48;;;;;;;5.28;84.83;102804.78;2503325;28;20047;-76
2023/12/16 03:12:54;;;;;;;34.30;21.30;;;;;;;5.30;84.77;102812.63;2511730;28;20482;-78
2023/12/16 03:14:07;;;;;;;35.30;20.10;;;;;;;5.31;84.67;102817.00;2504165;28;20054;-77
2023/12/16 03:15:22;;;;;;;39.90;22.23;;;;;;;5.30;84.77;102813.50;2503147;28;20419;-77
2023/12/16 03:16:35;;;;;;;33.10;20.75;;;;;;;5.30;84.87;102812.63;2503915;28;20056;-77
2023/12/16 03:17:51;;;;;;;35.25;20.08;;;;;;;5.31;84.71;102814.41;2502938;28;20081;-76
2023/12/16 03:19:05;;;;;;;42.28;21.42;;;;;;;5.30;84.67;102812.63;2502770;28;20085;-77
2023/12/16 03:20:20;;;;;;;35.20;20.23;;;;;;;5.30;84.60;102813.50;2503226;28;20066;-77
2023/12/16 03:21:33;;;;;;;36.35;20.92;;;;;;;5.29;84.67;102808.25;2504191;28;20050;-76
2023/12/16 03:22:48;;;;;;;36.17;21.73;;;;;;;5.28;84.64;102807.38;2502743;28;20423;-77
2023/12/16 03:24:03;;;;;;;38.40;19.95;;;;;;;5.28;84.68;102809.06;2502396;28;20129;-77
2023/12/16 03:25:18;;;;;;;37.17;20.30;;;;;;;5.27;84.67;102815.97;2502960;28;20042;-77
2023/12/16 03:26:31;;;;;;;36.58;20.67;;;;;;;5.24;84.51;102811.53;2502739;28;20050;-76
2023/12/16 03:27:47;;;;;;;34.88;20.63;;;;;;;5.23;84.62;102809.72;2501863;28;20122;-76
2023/12/16 03:29:00;;;;;;;34.88;19.17;;;;;;;5.21;84.44;102816.56;2502622;28;20051;-76
2023/12/16 03:30:15;;;;;;;30.25;19.85;;;;;;;5.19;84.66;102825.94;2502722;28;20404;-77
2023/12/16 03:31:28;;;;;;;29.95;20.25;;;;;;;5.18;84.56;102829.34;2502339;28;20432;-77
2023/12/16 03:32:43;;;;;;;34.92;19.25;;;;;;;5.15;84.54;102826.59;2501291;28;20047;-76
2023/12/16 03:33:56;;;;;;;33.60;19.88;;;;;;;5.14;84.54;102826.53;2502267;28;20508;-77
2023/12/16 03:35:10;;;;;;;25.25;17.98;;;;;;;5.10;84.57;102822.91;2503804;28;20057;-77
2023/12/16 03:36:24;;;;;;;31.55;18.60;;;;;;;5.07;84.32;102817.59;2508818;28;20512;-76
2023/12/16 03:37:38;;;;;;;33.28;20.25;;;;;;;5.02;84.45;102817.34;2507918;28;20062;-76
2023/12/16 03:38:52;;;;;;;38.83;19.65;;;;;;;5.00;84.24;102816.38;2505273;28;20055;-76
2023/12/16 03:40:08;;;;;;;41.17;20.27;;;;;;;4.97;84.40;102823.13;2509881;28;20034;-77
2023/12/16 03:41:21;;;;;;;30.40;19.80;;;;;;;4.93;84.34;102818.59;2502728;28;20538;-77
2023/12/16 03:42:35;;;;;;;31.77;18.50;;;;;;;4.90;84.21;102814.16;2502455;28;20051;-76
2023/12/16 03:43:50;;;;;;;32.03;19.25;;;;;;;4.88;84.21;102822.66;2496119;28;20066;-77
2023/12/16 03:45:05;;;;;;;38.22;20.00;;;;;;;4.86;84.22;102824.31;2492898;28;20436;-76
2023/12/16 03:46:19;;;;;;;29.60;17.50;;;;;;;4.81;83.99;102812.00;2495793;28;20073;-77
2023/12/16 03:47:33;;;;;;;33.00;19.40;;;;;;;4.81;84.19;102813.72;2501288;28;20057;-76
2023/12/16 03:48:47;;;;;;;36.90;20.77;;;;;;;4.77;84.34;102804.00;2510538;28;20134;-77
2023/12/16 03:50:01;;;;;;;29.95;18.95;;;;;;;4.74;84.26;102799.56;2504864;28;20058;-77
2023/12/16 03:51:15;;;;;;;39.53;20.20;;;;;;;4.74;84.26;102796.09;2509637;28;20074;-77
2023/12/16 03:52:29;;;;;;;39.08;20.55;;;;;;;4.70;84.13;102807.09;2497414;28;20047;-77
2023/12/16 03:53:43;;;;;;;38.80;20.45;;;;;;;4.68;84.21;102803.56;2497370;28;20685;-76
2023/12/16 03:54:57;;;;;;;40.78;19.40;;;;;;;4.66;84.22;102805.19;2493068;28;20058;-76
2023/12/16 03:56:10;;;;;;;39.70;21.25;;;;;;;4.64;84.18;102807.69;2502417;28;20046;-76
2023/12/16 03:57:25;;;;;;;38.05;20.52;;;;;;;4.63;84.33;102808.50;2511058;28;20058;-78
2023/12/16 03:58:38;;;;;;;42.88;22.52;;;;;;;4.60;84.16;102810.94;2503113;28;20050;-77
2023/12/16 03:59:54;;;;;;;40.42;21.40;;;;;;;4.59;84.34;102810.06;2502049;28;20527;-77
2023/12/16 04:01:13;;;;;;;36.72;21.08;;;;;;;4.58;84.38;102805.69;2503474;28;20062;-77
2023/12/16 04:02:27;;;;;;;41.85;22.85;;;;;;;4.59;84.23;102809.16;2508620;28;20419;-77
2023/12/16 04:03:41;;;;;;;36.45;22.60;;;;;;;4.58;84.31;102810.84;2507450;28;20042;-77
2023/12/16 04:04:55;;;;;;;45.42;22.63;;;;;;;4.58;84.40;102809.97;2505088;28;20424;-76
2023/12/16 04:06:11;;;;;;;42.28;22.30;;;;;;;4.57;84.51;102803.94;2502703;28;20054;-77
2023/12/16 04:07:26;;;;;;;38.40;20.10;;;;;;;4.57;84.68;102801.34;2505753;28;20566;-77
2023/12/16 04:08:40;;;;;;;36.83;20.77;;;;;;;4.58;84.51;102802.22;2507098;28;20047;-76
2023/12/16 04:09:54;;;;;;;47.55;21.77;;;;;;;4.58;84.60;102797.03;2509853;28;20043;-76
2023/12/16 04:11:08;;;;;;;39.50;21.60;;;;;;;4.58;84.61;102799.63;2503868;28;20081;-77
2023/12/16 04:12:23;;;;;;;51.90;22.95;;;;;;;4.57;84.54;102796.16;2509426;28;20551;-76
2023/12/16 04:13:36;;;;;;;44.83;24.05;;;;;;;4.58;84.60;102797.94;2507177;28;20539;-76
2023/12/16 04:14:50;;;;;;;44.38;25.25;;;;;;;4.56;84.73;102790.91;2510563;28;20050;-76
2023/12/16 04:16:06;;;;;;;40.50;21.85;;;;;;;4.55;84.73;102796.91;2496229;28;20039;-76
2023/12/16 04:17:20;;;;;;;40.88;21.75;;;;;;;4.55;84.70;102802.06;2499970;28;20378;-77
2023/12/16 04:18:34;;;;;;;48.13;24.67;;;;;;;4.53;84.58;102796.81;2492870;28;20054;-76
2023/12/16 04:19:53;;;;;;;43.90;23.80;;;;;;;4.53;84.70;102793.34;2498850;28;20131;-76
2023/12/16 04:21:06;;;;;;;46.63;22.85;;;;;;;4.52;84.64;102801.91;2511971;28;20054;-77
2023/12/16 04:22:21;;;;;;;44.92;23.55;;;;;;;4.50;84.59;102801.84;2507250;28;20440;-77
2023/12/16 04:23:34;;;;;;;45.60;24.60;;;;;;;4.47;84.56;102799.09;2506605;28;20043;-76
2023/12/16 04:24:50;;;;;;;53.38;25.55;;;;;;;4.46;84.51;102796.41;2502186;28;20046;-77
2023/12/16 04:26:03;;;;;;;47.25;25.10;;;;;;;4.45;84.63;102794.66;2497259;28;20051;-77
2023/12/16 04:27:18;;;;;;;49.25;24.27;;;;;;;4.45;84.71;102800.72;2504231;28;20492;-77
2023/12/16 04:28:31;;;;;;;50.38;25.70;;;;;;;4.45;84.70;102807.59;2508769;28;20039;-76
2023/12/16 04:29:45;;;;;;;43.35;22.35;;;;;;;4.45;84.66;102802.41;2514582;28;20414;-76
2023/12/16 04:30:59;;;;;;;52.28;25.42;;;;;;;4.45;84.69;102805.00;2514507;28;20069;-77
2023/12/16 04:32:15;;;;;;;52.17;31.10;;;;;;;4.45;84.82;102807.59;2512120;28;20070;-76
2023/12/16 04:33:28;;;;;;;46.63;26.40;;;;;;;4.47;84.88;102808.56;2504743;28;20058;-76
2023/12/16 04:34:42;;;;;;;52.17;24.30;;;;;;;4.47;84.77;102803.38;2504981;28;20047;-76
2023/12/16 04:35:56;;;;;;;56.05;27.42;;;;;;;4.47;84.92;102811.13;2511640;28;20577;-76
2023/12/16 04:37:11;;;;;;;45.60;25.98;;;;;;;4.48;84.90;102811.19;2506754;28;20061;-77
2023/12/16 04:38:24;;;;;;;49.67;25.30;;;;;;;4.52;84.84;102807.97;2511368;28;20046;-77
2023/12/16 04:39:39;;;;;;;47.25;25.20;;;;;;;4.53;85.16;102809.75;2504003;28;20424;-77
2023/12/16 04:40:52;;;;;;;47.00;25.80;;;;;;;4.56;84.95;102804.72;2506776;28;20053;-76
2023/12/16 04:42:09;;;;;;;44.22;25.17;;;;;;;4.58;84.85;102807.41;2515415;28;20053;-77
2023/12/16 04:43:23;;;;;;;44.80;23.63;;;;;;;4.59;85.02;102810.06;2510481;28;20062;-77
2023/12/16 04:44:37;;;;;;;55.97;25.98;;;;;;;4.62;84.95;102806.75;2517720;28;20117;-76
2023/12/16 04:45:51;;;;;;;49.88;25.95;;;;;;;4.63;85.02;102815.38;2518715;28;20046;-77
2023/12/16 04:47:07;;;;;;;51.00;25.50;;;;;;;4.63;84.97;102808.50;2514519;28;20042;-77
2023/12/16 04:48:21;;;;;;;47.80;22.92;;;;;;;4.64;85.17;102812.84;2511431;28;20104;-77
2023/12/16 04:49:36;;;;;;;54.95;28.20;;;;;;;4.66;85.06;102815.53;2504869;28;20061;-77
2023/12/16 04:50:49;;;;;;;51.10;27.02;;;;;;;4.66;85.14;102811.25;2504293;28;20043;-77
2023/12/16 04:52:05;;;;;;;53.70;24.95;;;;;;;4.68;85.26;102807.03;2503559;28;20049;-76
2023/12/16 04:53:18;;;;;;;52.53;29.13;;;;;;;4.69;85.13;102806.22;2511723;28;20069;-77
2023/12/16 04:54:32;;;;;;;57.38;29.42;;;;;;;4.72;85.14;102802.91;2508193;28;20038;-77
2023/12/16 04:55:46;;;;;;;53.65;24.95;;;;;;;4.74;85.35;102809.94;2513573;28;20138;-77
2023/12/16 04:57:00;;;;;;;59.40;28.83;;;;;;;4.75;85.16;102811.72;2514027;28;20507;-77
2023/12/16 04:58:14;;;;;;;69.55;37.13;;;;;;;4.76;85.23;102802.25;2513694;28;20502;-76
2023/12/16 04:59:28;;;;;;;48.42;26.95;;;;;;;4.77;85.20;102812.66;2512997;28;20050;-76
2023/12/16 05:00:42;;;;;;;72.20;36.95;;;;;;;4.78;85.24;102801.53;2513669;28;20060;-76
2023/12/16 05:01:56;;;;;;;63.13;36.60;;;;;;;4.81;85.20;102806.84;2513754;28;20068;-76
2023/12/16 05:03:09;;;;;;;53.80;26.55;;;;;;;4.81;85.35;102806.84;2505206;28;20058;-76
2023/12/16 05:04:25;;;;;;;58.75;33.38;;;;;;;4.82;85.05;102816.38;2513910;28;20049;-76
2023/12/16 05:05:39;;;;;;;56.03;31.15;;;;;;;4.84;85.20;102815.56;2513914;28;20084;-76
2023/12/16 05:06:53;;;;;;;70.05;31.58;;;;;;;4.84;85.14;102815.56;2507221;28;20513;-76
2023/12/16 05:08:07;;;;;;;56.20;30.15;;;;;;;4.85;85.19;102813.03;2512025;28;20499;-77
2023/12/16 05:09:21;;;;;;;46.22;26.50;;;;;;;4.86;85.15;102819.13;2513945;28;20051;-77
2023/12/16 05:10:35;;;;;;;56.08;28.45;;;;;;;4.86;85.22;102811.38;2509284;28;20054;-77
2023/12/16 05:11:49;;;;;;;55.75;26.50;;;;;;;4.85;85.32;102813.03;2509580;28;20079;-77
2023/12/16 05:13:02;;;;;;;49.35;26.73;;;;;;;4.87;85.34;102807.94;2513787;28;20061;-77
2023/12/16 05:14:17;;;;;;;50.10;26.00;;;;;;;4.86;85.17;102799.31;2503943;28;20065;-77
2023/12/16 05:15:30;;;;;;;54.83;26.55;;;;;;;4.87;85.15;102810.53;2500390;28;20043;-77
2023/12/16 05:16:45;;;;;;;55.60;28.90;;;;;;;4.87;85.27;102814.00;2499458;28;20050;-77
2023/12/16 05:17:58;;;;;;;51.80;27.33;;;;;;;4.88;85.17;102817.47;2499330;28;20050;-77
2023/12/16 05:19:12;;;;;;;47.75;26.40;;;;;;;4.87;85.07;102813.13;2502291;28;20051;-76
2023/12/16 05:20:27;;;;;;;50.05;26.42;;;;;;;4.87;85.33;102813.13;2503810;28;20054;-76
2023/12/16 05:21:41;;;;;;;55.83;26.38;;;;;;;4.86;85.05;102819.13;2503640;28;20096;-77
2023/12/16 05:22:55;;;;;;;43.92;24.13;;;;;;;4.86;85.11;102819.13;2510975;28;20046;-77
2023/12/16 05:24:09;;;;;;;46.17;22.70;;;;;;;4.86;85.13;102816.53;2497120;28;20047;-77
2023/12/16 05:25:23;;;;;;;43.75;23.83;;;;;;;4.84;85.15;102816.44;2503953;28;20051;-77
2023/12/16 05:26:37;;;;;;;43.03;23.98;;;;;;;4.82;85.10;102815.47;2499782;28;20077;-77
2023/12/16 05:27:50;;;;;;;41.65;25.05;;;;;;;4.80;85.21;102818.00;2505623;28;20042;-77
2023/12/16 05:29:05;;;;;;;51.08;24.15;;;;;;;4.79;85.14;102818.81;2513758;28;20042;-75
2023/12/16 05:30:18;;;;;;;102.25;43.33;;;;;;;4.77;85.12;102812.66;2497878;28;20056;-76
2023/12/16 05:31:33;;;;;;;137.73;53.45;;;;;;;4.78;85.26;102810.97;2508515;28;20503;-77
2023/12/16 05:32:46;;;;;;;67.65;33.78;;;;;;;4.78;85.15;102813.56;2504170;28;20053;-77
2023/12/16 05:34:01;;;;;;;46.50;22.98;;;;;;;4.78;84.93;102821.34;2509539;28;20551;-77
2023/12/16 05:35:14;;;;;;;41.75;22.30;;;;;;;4.77;85.09;102815.25;2497841;28;20043;-77
2023/12/16 05:36:30;;;;;;;56.72;27.67;;;;;;;4.76;85.25;102818.66;2507159;28;20053;-77
2023/12/16 05:37:43;;;;;;;54.20;25.92;;;;;;;4.76;85.10;102823.81;2513637;28;20046;-77
2023/12/16 05:38:58;;;;;;;54.30;27.42;;;;;;;4.76;85.20;102818.66;2506401;28;20043;-77
2023/12/16 05:40:11;;;;;;;59.20;29.17;;;;;;;4.77;85.09;102825.59;2505107;28;20043;-76
2023/12/16 05:41:26;;;;;;;43.85;24.15;;;;;;;4.75;84.98;102818.56;2506942;28;20498;-77
2023/12/16 05:42:39;;;;;;;50.25;26.15;;;;;;;4.76;84.74;102822.94;2513340;28;20053;-77